Terminal Aerodrome Forecast
Issued by NWS Melbourne, FL

Home | Current Version | Previous Version | Text Only | Print | Product List | Glossary On
Versions: 1 2 3 4 5 6 7 8 9 10 11 12 13 14 15
000
FTUS42 KMLB 021140
TAFVRB
TAF
KVRB 021140Z 0212/0312 00000KT P6SM FEW060
     FM021500 15007KT P6SM SCT025 SCT250
     FM022100 16008KT P6SM VCSH SCT040 BKN100 PROB30 0221/0301 4SM
      TSRA BKN025CB
     FM030200 20004KT P6SM OVC250=

USA.gov is the U.S. government's official web portal to all federal, state and local government web resources and services.